createdAt,value
2023-04-02T00:01:14.180Z,9.5
2023-04-02T00:06:14.163Z,9.4
2023-04-02T00:11:14.060Z,9.4
2023-04-02T00:16:14.045Z,9.5
2023-04-02T00:21:13.978Z,9.4
2023-04-02T00:26:13.919Z,9.5
2023-04-02T00:31:13.853Z,9.2
2023-04-02T00:36:13.886Z,9.3
2023-04-02T00:41:13.764Z,9.3
2023-04-02T00:51:16.177Z,9.4
2023-04-02T00:56:13.673Z,9.3
2023-04-02T01:01:13.641Z,9.4
2023-04-02T01:06:13.569Z,9.4
2023-04-02T01:11:13.511Z,9.4
2023-04-02T01:16:13.502Z,9.2
2023-04-02T01:21:13.433Z,9.2
2023-04-02T01:26:13.439Z,8.9
2023-04-02T01:31:13.422Z,8.9
2023-04-02T01:36:13.353Z,8.8
2023-04-02T01:41:13.259Z,8.8
2023-04-02T01:46:13.236Z,8.7
2023-04-02T01:51:13.162Z,8.6
2023-04-02T01:56:13.118Z,8.6
2023-04-02T02:01:12.972Z,8.4
2023-04-02T02:06:13.718Z,8.6
2023-04-02T02:11:12.789Z,8.6
2023-04-02T02:16:12.790Z,8.6
2023-04-02T02:21:12.578Z,8.6
2023-04-02T02:31:12.409Z,8.6
2023-04-02T02:36:12.413Z,8.6
2023-04-02T02:41:12.231Z,8.4
2023-04-02T02:46:12.216Z,8.6
2023-04-02T02:51:14.515Z,8.4
2023-04-02T02:56:12.053Z,8.5
2023-04-02T03:01:11.995Z,8.4
2023-04-02T03:11:11.799Z,8.6
2023-04-02T03:21:11.721Z,8.6
2023-04-02T03:26:11.665Z,8.6
2023-04-02T03:31:11.579Z,8.5
2023-04-02T03:36:11.517Z,8.5
2023-04-02T03:41:11.427Z,8.5
2023-04-02T03:46:11.441Z,8.6
2023-04-02T03:51:11.298Z,8.6
2023-04-02T03:56:11.245Z,8.4
2023-04-02T04:01:13.156Z,8.5
2023-04-02T04:06:15.156Z,8.5
2023-04-02T04:11:11.117Z,8.5
2023-04-02T04:16:13.110Z,8.5
2023-04-02T04:21:10.914Z,8.4
2023-04-02T04:26:10.858Z,8.3
2023-04-02T04:31:10.767Z,8.4
2023-04-02T04:46:12.688Z,8.4
2023-04-02T04:51:10.580Z,8.4
2023-04-02T04:56:18.639Z,8.4
2023-04-02T05:01:10.516Z,8.4
2023-04-02T05:06:12.400Z,8.4
2023-04-02T05:11:10.346Z,8.4
2023-04-02T05:16:10.332Z,8.3
2023-04-02T05:31:10.041Z,8.4
2023-04-02T05:36:10.173Z,8.4
2023-04-02T05:41:09.837Z,8.3
2023-04-02T05:46:09.866Z,8.3
2023-04-02T05:51:09.707Z,8.4
2023-04-02T05:56:09.649Z,8.4
2023-04-02T06:01:09.584Z,8.4
2023-04-02T06:06:09.483Z,8.5
2023-04-02T06:11:09.410Z,8.4
2023-04-02T06:16:09.337Z,8.4
2023-04-02T06:21:09.272Z,8.4
2023-04-02T06:26:09.233Z,8.4
2023-04-02T06:31:09.168Z,8.4
2023-04-02T06:36:09.106Z,8.5
2023-04-02T06:41:08.976Z,8.6
2023-04-02T06:46:08.991Z,8.6
2023-04-02T06:51:08.880Z,8.6
2023-04-02T06:56:08.739Z,8.7
2023-04-02T07:01:08.700Z,8.7
2023-04-02T07:06:08.579Z,8.8
2023-04-02T07:11:08.527Z,8.7
2023-04-02T07:16:08.477Z,8.8
2023-04-02T07:21:11.032Z,8.8
2023-04-02T07:26:08.360Z,8.6
2023-04-02T07:31:08.300Z,8.8
2023-04-02T07:41:08.236Z,8.6
2023-04-02T07:46:08.165Z,8.7
2023-04-02T07:51:08.084Z,8.8
2023-04-02T07:56:10.038Z,8.7
2023-04-02T08:01:07.995Z,8.8
2023-04-02T08:06:08.001Z,8.8
2023-04-02T08:11:07.988Z,8.8
2023-04-02T08:16:08.003Z,8.8
2023-04-02T08:21:07.941Z,8.9
2023-04-02T08:26:07.894Z,9.0
2023-04-02T08:31:07.983Z,9.1
2023-04-02T08:36:07.922Z,8.9
2023-04-02T08:41:07.845Z,9.1
2023-04-02T08:46:07.896Z,9.6
2023-04-02T08:51:07.883Z,9.8
2023-04-02T08:56:07.938Z,9.9
2023-04-02T09:01:07.924Z,10.1
2023-04-02T09:06:07.969Z,9.8
2023-04-02T09:11:08.027Z,9.9
2023-04-02T09:16:08.072Z,9.6
2023-04-02T09:21:10.600Z,9.4
2023-04-02T09:26:10.601Z,9.2
2023-04-02T09:31:08.139Z,9.4
2023-04-02T09:36:10.220Z,9.4
2023-04-02T09:41:08.169Z,9.6
2023-04-02T09:46:08.243Z,9.8
2023-04-02T09:51:08.274Z,9.6
2023-04-02T10:01:08.434Z,9.7
2023-04-02T10:06:08.370Z,9.9
2023-04-02T10:11:09.565Z,9.9
2023-04-02T10:16:08.601Z,10.2
2023-04-02T10:21:08.476Z,10.2
2023-04-02T10:26:08.511Z,10.2
2023-04-02T10:31:08.653Z,10.2
2023-04-02T10:36:08.615Z,9.9
2023-04-02T10:41:08.623Z,9.9
2023-04-02T10:46:10.699Z,9.9
2023-04-02T10:51:08.683Z,10.1
2023-04-02T10:56:08.693Z,10.2
2023-04-02T11:01:08.748Z,10.2
2023-04-02T11:06:10.776Z,10.2
2023-04-02T11:11:08.785Z,10.3
2023-04-02T11:16:08.821Z,10.7
2023-04-02T11:21:08.873Z,10.6
2023-04-02T11:26:08.830Z,10.7
2023-04-02T11:31:08.917Z,10.6
2023-04-02T11:36:08.979Z,10.4
2023-04-02T11:41:09.011Z,10.7
2023-04-02T11:46:09.110Z,11.0
2023-04-02T11:51:09.115Z,11.1
2023-04-02T11:56:09.110Z,10.9
2023-04-02T12:01:09.191Z,11.1
2023-04-02T12:06:11.777Z,11.2
2023-04-02T12:11:09.302Z,11.3
2023-04-02T12:16:09.396Z,11.2
2023-04-02T12:21:09.446Z,11.6
2023-04-02T12:26:09.520Z,11.4
2023-04-02T12:31:09.653Z,11.6
2023-04-02T12:36:09.775Z,11.8
2023-04-02T12:41:09.746Z,11.7
2023-04-02T12:46:09.880Z,12.0
2023-04-02T12:51:09.939Z,11.5
2023-04-02T12:56:10.052Z,11.9
2023-04-02T13:01:10.157Z,12.2
2023-04-02T13:06:10.290Z,12.2
2023-04-02T13:21:10.598Z,11.9
2023-04-02T13:26:12.748Z,12.2
2023-04-02T13:31:10.873Z,12.3
2023-04-02T13:36:10.974Z,12.0
2023-04-02T13:41:11.089Z,12.2
2023-04-02T13:46:11.248Z,12.3
2023-04-02T13:51:15.311Z,12.6
2023-04-02T13:56:11.385Z,12.5
2023-04-02T14:01:11.625Z,12.4
2023-04-02T14:06:11.655Z,12.8
2023-04-02T14:11:11.738Z,13.6
2023-04-02T14:16:11.916Z,12.6
2023-04-02T14:21:12.026Z,12.4
2023-04-02T14:26:12.162Z,13.1
2023-04-02T14:31:14.364Z,13.2
2023-04-02T14:36:12.379Z,12.9
2023-04-02T14:41:12.512Z,13.0
2023-04-02T14:46:12.688Z,13.3
2023-04-02T14:51:12.796Z,13.4
2023-04-02T14:56:12.959Z,13.1
2023-04-02T15:01:13.131Z,13.2
2023-04-02T15:06:13.232Z,13.1
2023-04-02T15:11:13.363Z,13.1
2023-04-02T15:16:13.551Z,13.4
2023-04-02T15:21:13.571Z,13.3
2023-04-02T15:26:13.679Z,13.3
2023-04-02T15:31:13.824Z,13.2
2023-04-02T15:36:14.258Z,13.6
2023-04-02T15:41:14.051Z,13.4
2023-04-02T15:46:14.220Z,13.6
2023-04-02T15:51:14.309Z,13.7
2023-04-02T15:56:14.461Z,13.5
2023-04-02T16:01:14.641Z,13.6
2023-04-02T16:06:14.777Z,13.7
2023-04-02T16:11:14.893Z,13.9
2023-04-02T16:16:15.066Z,14.1
2023-04-02T16:21:15.120Z,14.1
2023-04-02T16:26:15.374Z,13.6
2023-04-02T16:31:15.534Z,13.6
2023-04-02T16:36:15.707Z,13.6
2023-04-02T16:41:15.799Z,13.2
2023-04-02T16:56:16.195Z,12.9
2023-04-02T17:06:16.374Z,12.9
2023-04-02T17:11:16.498Z,12.8
2023-04-02T17:16:16.641Z,12.6
2023-04-02T17:21:16.730Z,12.6
2023-04-02T17:26:16.838Z,12.5
2023-04-02T17:31:18.947Z,12.3
2023-04-02T17:36:17.072Z,12.4
2023-04-02T17:41:17.144Z,13.9
2023-04-02T17:51:17.497Z,19.1
2023-04-02T17:56:17.777Z,19.4
2023-04-02T18:01:18.266Z,17.3
2023-04-02T18:06:18.459Z,15.2
2023-04-02T18:11:18.675Z,13.6
2023-04-02T18:16:18.848Z,12.6
2023-04-02T18:21:19.013Z,12.2
2023-04-02T18:26:19.160Z,11.8
2023-04-02T18:36:19.427Z,11.0
2023-04-02T18:41:19.508Z,10.7
2023-04-02T18:46:20.771Z,10.5
2023-04-02T18:51:23.570Z,10.3
2023-04-02T18:56:23.620Z,10.1
2023-04-02T19:01:19.753Z,9.9
2023-04-02T19:06:19.633Z,9.8
2023-04-02T19:11:19.615Z,9.7
2023-04-02T19:16:19.649Z,9.4
2023-04-02T19:21:19.590Z,9.1
2023-04-02T19:26:19.653Z,8.9
2023-04-02T19:31:19.703Z,8.8
2023-04-02T19:41:19.793Z,8.4
2023-04-02T19:46:19.595Z,8.2
2023-04-02T19:51:19.474Z,8.1
2023-04-02T19:56:19.448Z,8.0
2023-04-02T20:01:19.383Z,7.8
2023-04-02T20:06:19.258Z,7.6
2023-04-02T20:11:19.193Z,7.6
2023-04-02T20:16:19.636Z,7.5
2023-04-02T20:21:21.025Z,7.4
2023-04-02T20:26:19.351Z,7.2
2023-04-02T20:31:19.003Z,7.1
2023-04-02T20:36:18.798Z,7.0
2023-04-02T20:41:18.759Z,6.9
2023-04-02T20:46:18.775Z,6.8
2023-04-02T20:51:18.568Z,6.7
2023-04-02T20:56:18.533Z,6.6
2023-04-02T21:01:18.457Z,6.4
2023-04-02T21:06:18.299Z,6.4
2023-04-02T21:11:18.202Z,6.3
2023-04-02T21:21:17.969Z,6.4
2023-04-02T21:26:17.917Z,6.4
2023-04-02T21:31:17.846Z,6.4
2023-04-02T21:36:17.690Z,6.5
2023-04-02T21:41:17.553Z,6.5
2023-04-02T21:46:17.451Z,6.5
2023-04-02T21:51:19.312Z,6.6
2023-04-02T21:56:17.436Z,6.4
2023-04-02T22:01:26.043Z,6.2
2023-04-02T22:06:16.953Z,6.6
2023-04-02T22:11:16.823Z,6.1
2023-04-02T22:16:18.681Z,6.0
2023-04-02T22:21:16.554Z,5.9
2023-04-02T22:26:16.417Z,5.8
2023-04-02T22:31:16.466Z,5.6
2023-04-02T22:36:16.116Z,5.4
2023-04-02T22:41:16.019Z,5.3
2023-04-02T22:46:15.981Z,5.2
2023-04-02T22:51:15.713Z,5.4
2023-04-02T22:56:15.574Z,5.6
2023-04-02T23:01:15.584Z,5.6
2023-04-02T23:06:15.381Z,5.7
2023-04-02T23:16:15.156Z,5.6
2023-04-02T23:21:14.862Z,5.5
2023-04-02T23:26:16.600Z,5.5
2023-04-02T23:31:17.541Z,5.5
2023-04-02T23:36:14.414Z,5.6
2023-04-02T23:41:14.288Z,5.6
2023-04-02T23:51:13.941Z,5.4
2023-04-02T23:56:13.762Z,5.3
